sensor_id;sensor_type;location;lat;lon;timestamp;P1;durP1;ratioP1;P2;durP2;ratioP2
33162;SDS011;29282;45.656;11.302;2024-03-02T00:00:50;2.88;;;2.00;;
33162;SDS011;29282;45.656;11.302;2024-03-02T00:03:17;2.38;;;2.13;;
33162;SDS011;29282;45.656;11.302;2024-03-02T00:05:43;2.45;;;1.85;;
33162;SDS011;29282;45.656;11.302;2024-03-02T00:08:08;3.10;;;1.80;;
33162;SDS011;29282;45.656;11.302;2024-03-02T00:10:38;2.33;;;1.70;;
33162;SDS011;29282;45.656;11.302;2024-03-02T00:13:07;2.10;;;1.83;;
33162;SDS011;29282;45.656;11.302;2024-03-02T00:17:59;2.97;;;1.88;;
33162;SDS011;29282;45.656;11.302;2024-03-02T00:20:25;2.88;;;2.20;;
33162;SDS011;29282;45.656;11.302;2024-03-02T00:22:55;2.53;;;1.88;;
33162;SDS011;29282;45.656;11.302;2024-03-02T00:25:34;2.38;;;1.73;;
33162;SDS011;29282;45.656;11.302;2024-03-02T00:28:04;2.72;;;2.25;;
33162;SDS011;29282;45.656;11.302;2024-03-02T00:33:19;5.10;;;1.85;;
33162;SDS011;29282;45.656;11.302;2024-03-02T00:35:49;2.97;;;1.80;;
33162;SDS011;29282;45.656;11.302;2024-03-02T00:38:15;2.80;;;2.03;;
33162;SDS011;29282;45.656;11.302;2024-03-02T00:40:44;2.13;;;1.70;;
33162;SDS011;29282;45.656;11.302;2024-03-02T00:43:26;5.32;;;2.08;;
33162;SDS011;29282;45.656;11.302;2024-03-02T00:46:06;7.70;;;2.20;;
33162;SDS011;29282;45.656;11.302;2024-03-02T00:48:31;2.78;;;1.90;;
33162;SDS011;29282;45.656;11.302;2024-03-02T00:51:00;4.07;;;2.15;;
33162;SDS011;29282;45.656;11.302;2024-03-02T00:53:28;2.67;;;1.80;;
33162;SDS011;29282;45.656;11.302;2024-03-02T00:55:55;2.25;;;1.90;;
33162;SDS011;29282;45.656;11.302;2024-03-02T00:58:21;4.50;;;1.98;;
33162;SDS011;29282;45.656;11.302;2024-03-02T01:00:46;3.22;;;1.70;;
33162;SDS011;29282;45.656;11.302;2024-03-02T01:03:12;4.40;;;1.92;;
33162;SDS011;29282;45.656;11.302;2024-03-02T01:05:41;3.38;;;1.85;;
33162;SDS011;29282;45.656;11.302;2024-03-02T01:08:10;5.68;;;1.90;;
33162;SDS011;29282;45.656;11.302;2024-03-02T01:10:36;4.53;;;2.10;;
33162;SDS011;29282;45.656;11.302;2024-03-02T01:13:01;7.20;;;2.08;;
33162;SDS011;29282;45.656;11.302;2024-03-02T01:15:27;3.28;;;1.80;;
33162;SDS011;29282;45.656;11.302;2024-03-02T01:17:56;5.28;;;1.77;;
33162;SDS011;29282;45.656;11.302;2024-03-02T01:20:21;3.20;;;1.88;;
33162;SDS011;29282;45.656;11.302;2024-03-02T01:22:47;4.30;;;1.92;;
33162;SDS011;29282;45.656;11.302;2024-03-02T01:25:13;2.55;;;1.85;;
33162;SDS011;29282;45.656;11.302;2024-03-02T01:27:38;3.63;;;1.98;;
33162;SDS011;29282;45.656;11.302;2024-03-02T01:30:04;3.78;;;1.98;;
33162;SDS011;29282;45.656;11.302;2024-03-02T01:32:30;5.03;;;1.95;;
33162;SDS011;29282;45.656;11.302;2024-03-02T01:34:56;3.53;;;2.15;;
33162;SDS011;29282;45.656;11.302;2024-03-02T01:37:21;4.55;;;1.75;;
33162;SDS011;29282;45.656;11.302;2024-03-02T01:39:47;3.65;;;2.03;;
33162;SDS011;29282;45.656;11.302;2024-03-02T01:42:12;2.60;;;1.92;;
33162;SDS011;29282;45.656;11.302;2024-03-02T01:44:39;2.55;;;1.98;;
33162;SDS011;29282;45.656;11.302;2024-03-02T01:47:05;3.40;;;1.98;;
33162;SDS011;29282;45.656;11.302;2024-03-02T01:49:30;2.67;;;1.90;;
33162;SDS011;29282;45.656;11.302;2024-03-02T01:51:58;2.20;;;1.70;;
33162;SDS011;29282;45.656;11.302;2024-03-02T01:54:23;3.72;;;1.90;;
33162;SDS011;29282;45.656;11.302;2024-03-02T01:56:49;3.85;;;1.95;;
33162;SDS011;29282;45.656;11.302;2024-03-02T01:59:14;2.75;;;1.80;;
33162;SDS011;29282;45.656;11.302;2024-03-02T02:01:40;3.40;;;1.90;;
33162;SDS011;29282;45.656;11.302;2024-03-02T02:04:05;2.50;;;1.80;;
33162;SDS011;29282;45.656;11.302;2024-03-02T02:06:31;3.30;;;1.98;;
33162;SDS011;29282;45.656;11.302;2024-03-02T02:08:57;1.75;;;1.40;;
33162;SDS011;29282;45.656;11.302;2024-03-02T02:11:23;3.10;;;1.70;;
33162;SDS011;29282;45.656;11.302;2024-03-02T02:13:49;3.53;;;1.58;;
33162;SDS011;29282;45.656;11.302;2024-03-02T02:16:15;2.53;;;1.80;;
33162;SDS011;29282;45.656;11.302;2024-03-02T02:18:40;2.45;;;1.70;;
33162;SDS011;29282;45.656;11.302;2024-03-02T02:21:06;3.55;;;1.80;;
33162;SDS011;29282;45.656;11.302;2024-03-02T02:23:31;3.92;;;1.90;;
33162;SDS011;29282;45.656;11.302;2024-03-02T02:25:57;5.78;;;1.77;;
33162;SDS011;29282;45.656;11.302;2024-03-02T02:28:22;3.97;;;1.80;;
33162;SDS011;29282;45.656;11.302;2024-03-02T02:30:48;2.42;;;1.85;;
33162;SDS011;29282;45.656;11.302;2024-03-02T02:33:13;3.97;;;1.80;;
33162;SDS011;29282;45.656;11.302;2024-03-02T02:35:39;3.80;;;1.70;;
33162;SDS011;29282;45.656;11.302;2024-03-02T02:38:04;2.45;;;1.52;;
33162;SDS011;29282;45.656;11.302;2024-03-02T02:40:30;4.55;;;2.00;;
33162;SDS011;29282;45.656;11.302;2024-03-02T02:42:56;1.70;;;1.60;;
33162;SDS011;29282;45.656;11.302;2024-03-02T02:45:22;5.07;;;2.05;;
33162;SDS011;29282;45.656;11.302;2024-03-02T02:47:48;2.30;;;1.85;;
33162;SDS011;29282;45.656;11.302;2024-03-02T02:50:15;1.90;;;1.50;;
33162;SDS011;29282;45.656;11.302;2024-03-02T02:52:41;3.55;;;1.55;;
33162;SDS011;29282;45.656;11.302;2024-03-02T02:55:11;3.03;;;1.83;;
33162;SDS011;29282;45.656;11.302;2024-03-02T02:57:39;3.95;;;1.92;;
33162;SDS011;29282;45.656;11.302;2024-03-02T03:00:06;5.53;;;1.67;;
33162;SDS011;29282;45.656;11.302;2024-03-02T03:02:35;3.30;;;1.80;;
33162;SDS011;29282;45.656;11.302;2024-03-02T03:05:08;2.17;;;1.60;;
33162;SDS011;29282;45.656;11.302;2024-03-02T03:07:34;2.65;;;1.90;;
33162;SDS011;29282;45.656;11.302;2024-03-02T03:10:00;4.72;;;1.92;;
33162;SDS011;29282;45.656;11.302;2024-03-02T03:12:29;2.35;;;1.65;;
33162;SDS011;29282;45.656;11.302;2024-03-02T03:14:56;2.13;;;1.65;;
33162;SDS011;29282;45.656;11.302;2024-03-02T03:17:22;3.47;;;1.70;;
33162;SDS011;29282;45.656;11.302;2024-03-02T03:19:48;2.65;;;1.63;;
33162;SDS011;29282;45.656;11.302;2024-03-02T03:22:14;3.53;;;1.83;;
33162;SDS011;29282;45.656;11.302;2024-03-02T03:24:39;2.78;;;1.85;;
33162;SDS011;29282;45.656;11.302;2024-03-02T03:27:05;1.80;;;1.60;;
33162;SDS011;29282;45.656;11.302;2024-03-02T03:29:31;2.10;;;1.50;;
33162;SDS011;29282;45.656;11.302;2024-03-02T03:31:56;3.25;;;1.88;;
33162;SDS011;29282;45.656;11.302;2024-03-02T03:34:22;3.20;;;1.65;;
33162;SDS011;29282;45.656;11.302;2024-03-02T03:36:47;2.33;;;1.60;;
33162;SDS011;29282;45.656;11.302;2024-03-02T03:39:13;3.65;;;2.00;;
33162;SDS011;29282;45.656;11.302;2024-03-02T03:41:40;2.40;;;1.77;;
33162;SDS011;29282;45.656;11.302;2024-03-02T03:44:06;2.33;;;1.58;;
33162;SDS011;29282;45.656;11.302;2024-03-02T03:46:31;2.92;;;1.48;;
33162;SDS011;29282;45.656;11.302;2024-03-02T03:48:56;2.15;;;1.60;;
33162;SDS011;29282;45.656;11.302;2024-03-02T03:51:22;2.30;;;1.50;;
33162;SDS011;29282;45.656;11.302;2024-03-02T03:53:48;2.20;;;1.58;;
33162;SDS011;29282;45.656;11.302;2024-03-02T03:56:13;1.90;;;1.70;;
33162;SDS011;29282;45.656;11.302;2024-03-02T03:58:39;2.47;;;1.67;;
33162;SDS011;29282;45.656;11.302;2024-03-02T04:01:05;2.03;;;1.55;;
33162;SDS011;29282;45.656;11.302;2024-03-02T04:03:30;1.95;;;1.60;;
33162;SDS011;29282;45.656;11.302;2024-03-02T04:05:56;3.13;;;1.45;;
33162;SDS011;29282;45.656;11.302;2024-03-02T04:08:21;2.28;;;1.70;;
33162;SDS011;29282;45.656;11.302;2024-03-02T04:10:47;3.20;;;2.00;;
33162;SDS011;29282;45.656;11.302;2024-03-02T04:13:12;3.47;;;1.33;;
33162;SDS011;29282;45.656;11.302;2024-03-02T04:15:38;3.45;;;1.58;;
33162;SDS011;29282;45.656;11.302;2024-03-02T04:18:03;7.28;;;1.80;;
33162;SDS011;29282;45.656;11.302;2024-03-02T04:20:29;3.95;;;1.63;;
33162;SDS011;29282;45.656;11.302;2024-03-02T04:22:55;2.58;;;1.73;;
33162;SDS011;29282;45.656;11.302;2024-03-02T04:25:23;2.75;;;1.55;;
33162;SDS011;29282;45.656;11.302;2024-03-02T04:27:54;3.80;;;1.60;;
33162;SDS011;29282;45.656;11.302;2024-03-02T04:30:20;2.65;;;1.55;;
33162;SDS011;29282;45.656;11.302;2024-03-02T04:32:45;2.58;;;1.50;;
33162;SDS011;29282;45.656;11.302;2024-03-02T04:35:12;1.80;;;1.40;;
33162;SDS011;29282;45.656;11.302;2024-03-02T04:37:38;2.55;;;1.65;;
33162;SDS011;29282;45.656;11.302;2024-03-02T04:40:04;2.08;;;1.20;;
33162;SDS011;29282;45.656;11.302;2024-03-02T04:42:33;1.98;;;1.58;;
33162;SDS011;29282;45.656;11.302;2024-03-02T04:44:59;1.60;;;1.40;;
33162;SDS011;29282;45.656;11.302;2024-03-02T04:47:24;1.73;;;1.35;;
33162;SDS011;29282;45.656;11.302;2024-03-02T04:49:49;2.92;;;1.90;;
33162;SDS011;29282;45.656;11.302;2024-03-02T04:52:15;1.63;;;1.35;;
33162;SDS011;29282;45.656;11.302;2024-03-02T04:54:41;2.15;;;1.75;;
33162;SDS011;29282;45.656;11.302;2024-03-02T04:57:25;2.33;;;1.60;;
33162;SDS011;29282;45.656;11.302;2024-03-02T04:59:51;1.50;;;1.40;;
33162;SDS011;29282;45.656;11.302;2024-03-02T05:02:16;2.65;;;1.77;;
33162;SDS011;29282;45.656;11.302;2024-03-02T05:04:41;2.03;;;1.55;;
33162;SDS011;29282;45.656;11.302;2024-03-02T05:07:07;2.17;;;1.60;;
33162;SDS011;29282;45.656;11.302;2024-03-02T05:09:33;2.35;;;1.70;;
33162;SDS011;29282;45.656;11.302;2024-03-02T05:11:58;3.17;;;1.50;;
33162;SDS011;29282;45.656;11.302;2024-03-02T05:14:42;2.13;;;1.50;;
33162;SDS011;29282;45.656;11.302;2024-03-02T05:17:08;2.28;;;1.50;;
33162;SDS011;29282;45.656;11.302;2024-03-02T05:19:33;1.83;;;1.50;;
33162;SDS011;29282;45.656;11.302;2024-03-02T05:21:58;1.75;;;1.48;;
33162;SDS011;29282;45.656;11.302;2024-03-02T05:24:24;2.33;;;1.65;;
33162;SDS011;29282;45.656;11.302;2024-03-02T05:26:52;3.00;;;1.70;;
33162;SDS011;29282;45.656;11.302;2024-03-02T05:29:18;1.73;;;1.50;;
33162;SDS011;29282;45.656;11.302;2024-03-02T05:31:43;3.22;;;1.58;;
33162;SDS011;29282;45.656;11.302;2024-03-02T05:34:09;1.50;;;1.38;;
33162;SDS011;29282;45.656;11.302;2024-03-02T05:36:35;2.15;;;1.63;;
33162;SDS011;29282;45.656;11.302;2024-03-02T05:39:00;1.70;;;1.30;;
33162;SDS011;29282;45.656;11.302;2024-03-02T05:41:27;2.00;;;1.30;;
33162;SDS011;29282;45.656;11.302;2024-03-02T05:43:52;2.17;;;1.50;;
33162;SDS011;29282;45.656;11.302;2024-03-02T05:46:18;3.00;;;1.40;;
33162;SDS011;29282;45.656;11.302;2024-03-02T05:48:43;2.58;;;1.60;;
33162;SDS011;29282;45.656;11.302;2024-03-02T05:51:09;2.55;;;1.58;;
33162;SDS011;29282;45.656;11.302;2024-03-02T05:53:34;1.80;;;1.60;;
33162;SDS011;29282;45.656;11.302;2024-03-02T05:56:03;2.38;;;1.65;;
33162;SDS011;29282;45.656;11.302;2024-03-02T05:58:29;5.32;;;1.50;;
33162;SDS011;29282;45.656;11.302;2024-03-02T06:01:11;2.10;;;1.40;;
33162;SDS011;29282;45.656;11.302;2024-03-02T06:03:37;2.08;;;1.30;;
33162;SDS011;29282;45.656;11.302;2024-03-02T06:06:02;1.40;;;1.30;;
33162;SDS011;29282;45.656;11.302;2024-03-02T06:08:31;1.75;;;1.42;;
33162;SDS011;29282;45.656;11.302;2024-03-02T06:10:57;2.45;;;1.60;;
33162;SDS011;29282;45.656;11.302;2024-03-02T06:13:23;1.90;;;1.30;;
33162;SDS011;29282;45.656;11.302;2024-03-02T06:15:50;2.20;;;1.50;;
33162;SDS011;29282;45.656;11.302;2024-03-02T06:18:16;2.65;;;1.42;;
33162;SDS011;29282;45.656;11.302;2024-03-02T06:20:41;3.80;;;1.42;;
33162;SDS011;29282;45.656;11.302;2024-03-02T06:23:07;1.40;;;1.30;;
33162;SDS011;29282;45.656;11.302;2024-03-02T06:25:32;1.83;;;1.48;;
33162;SDS011;29282;45.656;11.302;2024-03-02T06:27:57;1.42;;;1.30;;
33162;SDS011;29282;45.656;11.302;2024-03-02T06:30:23;1.30;;;1.20;;
33162;SDS011;29282;45.656;11.302;2024-03-02T06:32:48;1.55;;;1.30;;
33162;SDS011;29282;45.656;11.302;2024-03-02T06:35:14;1.42;;;1.33;;
33162;SDS011;29282;45.656;11.302;2024-03-02T06:37:39;2.95;;;1.30;;
33162;SDS011;29282;45.656;11.302;2024-03-02T06:40:06;1.85;;;1.17;;
33162;SDS011;29282;45.656;11.302;2024-03-02T06:42:33;2.67;;;1.40;;
33162;SDS011;29282;45.656;11.302;2024-03-02T06:44:59;3.55;;;1.38;;
33162;SDS011;29282;45.656;11.302;2024-03-02T06:47:24;2.65;;;1.42;;
33162;SDS011;29282;45.656;11.302;2024-03-02T06:49:50;1.60;;;1.40;;
33162;SDS011;29282;45.656;11.302;2024-03-02T06:52:16;1.33;;;1.23;;
33162;SDS011;29282;45.656;11.302;2024-03-02T06:54:41;1.95;;;1.30;;
33162;SDS011;29282;45.656;11.302;2024-03-02T06:57:07;1.85;;;1.20;;
33162;SDS011;29282;45.656;11.302;2024-03-02T06:59:32;1.92;;;1.13;;
33162;SDS011;29282;45.656;11.302;2024-03-02T07:01:58;2.05;;;1.30;;
33162;SDS011;29282;45.656;11.302;2024-03-02T07:04:24;1.38;;;1.27;;
33162;SDS011;29282;45.656;11.302;2024-03-02T07:06:50;3.35;;;1.50;;
33162;SDS011;29282;45.656;11.302;2024-03-02T07:09:16;1.27;;;1.05;;
33162;SDS011;29282;45.656;11.302;2024-03-02T07:11:42;2.00;;;1.27;;
33162;SDS011;29282;45.656;11.302;2024-03-02T07:14:07;1.70;;;1.48;;
33162;SDS011;29282;45.656;11.302;2024-03-02T07:16:33;1.63;;;1.25;;
33162;SDS011;29282;45.656;11.302;2024-03-02T07:18:59;1.75;;;1.20;;
33162;SDS011;29282;45.656;11.302;2024-03-02T07:21:27;1.30;;;1.20;;
33162;SDS011;29282;45.656;11.302;2024-03-02T07:23:53;4.10;;;1.38;;
33162;SDS011;29282;45.656;11.302;2024-03-02T07:26:18;2.00;;;1.42;;
33162;SDS011;29282;45.656;11.302;2024-03-02T07:28:45;1.38;;;1.23;;
33162;SDS011;29282;45.656;11.302;2024-03-02T07:31:13;1.77;;;1.20;;
33162;SDS011;29282;45.656;11.302;2024-03-02T07:33:38;1.70;;;1.30;;
33162;SDS011;29282;45.656;11.302;2024-03-02T07:36:04;2.72;;;1.55;;
33162;SDS011;29282;45.656;11.302;2024-03-02T07:38:30;1.25;;;1.15;;
33162;SDS011;29282;45.656;11.302;2024-03-02T07:40:56;1.50;;;1.40;;
33162;SDS011;29282;45.656;11.302;2024-03-02T07:43:22;1.85;;;1.30;;
33162;SDS011;29282;45.656;11.302;2024-03-02T07:45:48;2.13;;;1.35;;
33162;SDS011;29282;45.656;11.302;2024-03-02T07:48:14;1.17;;;1.02;;
33162;SDS011;29282;45.656;11.302;2024-03-02T07:50:40;1.52;;;1.20;;
33162;SDS011;29282;45.656;11.302;2024-03-02T07:53:06;2.10;;;1.50;;
33162;SDS011;29282;45.656;11.302;2024-03-02T07:55:35;1.40;;;1.30;;
33162;SDS011;29282;45.656;11.302;2024-03-02T07:58:01;1.40;;;1.30;;
33162;SDS011;29282;45.656;11.302;2024-03-02T08:00:26;2.00;;;1.30;;
33162;SDS011;29282;45.656;11.302;2024-03-02T08:02:53;1.35;;;1.20;;
33162;SDS011;29282;45.656;11.302;2024-03-02T08:05:19;1.38;;;1.23;;
33162;SDS011;29282;45.656;11.302;2024-03-02T08:07:47;1.27;;;1.08;;
33162;SDS011;29282;45.656;11.302;2024-03-02T08:10:17;1.83;;;1.30;;
33162;SDS011;29282;45.656;11.302;2024-03-02T08:12:44;1.63;;;1.33;;
33162;SDS011;29282;45.656;11.302;2024-03-02T08:15:09;1.40;;;1.30;;
33162;SDS011;29282;45.656;11.302;2024-03-02T08:17:35;2.10;;;1.48;;
33162;SDS011;29282;45.656;11.302;2024-03-02T08:20:00;1.70;;;1.20;;
33162;SDS011;29282;45.656;11.302;2024-03-02T08:22:27;1.77;;;1.40;;
33162;SDS011;29282;45.656;11.302;2024-03-02T08:24:52;2.25;;;1.40;;
33162;SDS011;29282;45.656;11.302;2024-03-02T08:27:21;2.28;;;1.38;;
33162;SDS011;29282;45.656;11.302;2024-03-02T08:29:47;2.33;;;1.30;;
33162;SDS011;29282;45.656;11.302;2024-03-02T08:32:12;3.25;;;1.50;;
33162;SDS011;29282;45.656;11.302;2024-03-02T08:34:38;1.70;;;1.30;;
33162;SDS011;29282;45.656;11.302;2024-03-02T08:37:03;1.85;;;1.35;;
33162;SDS011;29282;45.656;11.302;2024-03-02T08:39:29;1.20;;;1.10;;
33162;SDS011;29282;45.656;11.302;2024-03-02T08:41:55;1.33;;;1.13;;
33162;SDS011;29282;45.656;11.302;2024-03-02T08:44:20;3.05;;;1.20;;
33162;SDS011;29282;45.656;11.302;2024-03-02T08:46:46;1.95;;;1.42;;
33162;SDS011;29282;45.656;11.302;2024-03-02T08:49:12;1.50;;;1.27;;
33162;SDS011;29282;45.656;11.302;2024-03-02T08:51:38;1.63;;;1.30;;
33162;SDS011;29282;45.656;11.302;2024-03-02T08:54:06;1.30;;;1.15;;
33162;SDS011;29282;45.656;11.302;2024-03-02T08:56:31;1.90;;;1.40;;
33162;SDS011;29282;45.656;11.302;2024-03-02T08:58:57;1.63;;;1.10;;
33162;SDS011;29282;45.656;11.302;2024-03-02T09:01:23;1.80;;;1.20;;
33162;SDS011;29282;45.656;11.302;2024-03-02T09:03:49;1.60;;;1.42;;
33162;SDS011;29282;45.656;11.302;2024-03-02T09:06:18;2.15;;;1.10;;
33162;SDS011;29282;45.656;11.302;2024-03-02T09:08:45;1.88;;;1.40;;
33162;SDS011;29282;45.656;11.302;2024-03-02T09:11:14;1.42;;;1.00;;
33162;SDS011;29282;45.656;11.302;2024-03-02T09:13:41;1.20;;;1.10;;
33162;SDS011;29282;45.656;11.302;2024-03-02T09:16:07;2.10;;;1.48;;
33162;SDS011;29282;45.656;11.302;2024-03-02T09:18:36;1.85;;;1.30;;
33162;SDS011;29282;45.656;11.302;2024-03-02T09:21:04;1.15;;;1.05;;
33162;SDS011;29282;45.656;11.302;2024-03-02T09:23:29;1.30;;;1.20;;
33162;SDS011;29282;45.656;11.302;2024-03-02T09:25:55;1.23;;;1.10;;
33162;SDS011;29282;45.656;11.302;2024-03-02T09:28:20;2.33;;;1.17;;
33162;SDS011;29282;45.656;11.302;2024-03-02T09:30:46;1.88;;;1.10;;
33162;SDS011;29282;45.656;11.302;2024-03-02T09:33:11;1.65;;;1.25;;
33162;SDS011;29282;45.656;11.302;2024-03-02T09:35:37;1.73;;;1.35;;
33162;SDS011;29282;45.656;11.302;2024-03-02T09:38:02;1.33;;;1.20;;
33162;SDS011;29282;45.656;11.302;2024-03-02T09:40:28;3.28;;;1.38;;
33162;SDS011;29282;45.656;11.302;2024-03-02T09:42:54;2.78;;;1.20;;
33162;SDS011;29282;45.656;11.302;2024-03-02T09:45:24;2.42;;;1.50;;
33162;SDS011;29282;45.656;11.302;2024-03-02T09:47:53;1.48;;;1.30;;
33162;SDS011;29282;45.656;11.302;2024-03-02T09:50:21;2.65;;;1.42;;
33162;SDS011;29282;45.656;11.302;2024-03-02T09:52:48;2.50;;;1.30;;
33162;SDS011;29282;45.656;11.302;2024-03-02T09:55:15;4.35;;;1.20;;
33162;SDS011;29282;45.656;11.302;2024-03-02T09:57:42;1.23;;;1.13;;
33162;SDS011;29282;45.656;11.302;2024-03-02T10:00:08;2.03;;;1.50;;
33162;SDS011;29282;45.656;11.302;2024-03-02T10:02:34;3.35;;;1.23;;
33162;SDS011;29282;45.656;11.302;2024-03-02T10:05:02;2.95;;;1.40;;
33162;SDS011;29282;45.656;11.302;2024-03-02T10:07:29;3.50;;;1.50;;
33162;SDS011;29282;45.656;11.302;2024-03-02T10:09:54;2.40;;;1.40;;
33162;SDS011;29282;45.656;11.302;2024-03-02T10:12:20;2.20;;;1.40;;
33162;SDS011;29282;45.656;11.302;2024-03-02T10:14:45;1.35;;;1.25;;
33162;SDS011;29282;45.656;11.302;2024-03-02T10:17:13;3.55;;;1.30;;
33162;SDS011;29282;45.656;11.302;2024-03-02T10:19:43;3.15;;;1.45;;
33162;SDS011;29282;45.656;11.302;2024-03-02T10:22:09;5.07;;;1.58;;
33162;SDS011;29282;45.656;11.302;2024-03-02T10:27:06;5.38;;;1.63;;
33162;SDS011;29282;45.656;11.302;2024-03-02T10:29:36;1.88;;;1.27;;
33162;SDS011;29282;45.656;11.302;2024-03-02T10:32:02;4.63;;;1.42;;
33162;SDS011;29282;45.656;11.302;2024-03-02T10:34:27;3.72;;;1.50;;
33162;SDS011;29282;45.656;11.302;2024-03-02T10:36:53;3.22;;;1.50;;
33162;SDS011;29282;45.656;11.302;2024-03-02T10:39:20;5.93;;;1.67;;
33162;SDS011;29282;45.656;11.302;2024-03-02T10:41:46;2.38;;;1.48;;
33162;SDS011;29282;45.656;11.302;2024-03-02T10:44:14;4.07;;;1.60;;
33162;SDS011;29282;45.656;11.302;2024-03-02T10:46:41;2.15;;;1.40;;
33162;SDS011;29282;45.656;11.302;2024-03-02T10:49:09;2.92;;;1.50;;
33162;SDS011;29282;45.656;11.302;2024-03-02T10:51:34;2.45;;;1.40;;
33162;SDS011;29282;45.656;11.302;2024-03-02T10:54:03;2.17;;;1.45;;
33162;SDS011;29282;45.656;11.302;2024-03-02T10:56:30;2.88;;;1.50;;
33162;SDS011;29282;45.656;11.302;2024-03-02T11:01:53;4.05;;;1.58;;
33162;SDS011;29282;45.656;11.302;2024-03-02T11:04:22;2.78;;;1.58;;
33162;SDS011;29282;45.656;11.302;2024-03-02T11:06:49;1.90;;;1.40;;
33162;SDS011;29282;45.656;11.302;2024-03-02T11:09:18;4.38;;;1.40;;
33162;SDS011;29282;45.656;11.302;2024-03-02T11:11:48;2.20;;;1.20;;
33162;SDS011;29282;45.656;11.302;2024-03-02T11:14:18;3.03;;;1.75;;
33162;SDS011;29282;45.656;11.302;2024-03-02T11:16:49;2.25;;;1.33;;
33162;SDS011;29282;45.656;11.302;2024-03-02T11:19:15;2.10;;;1.40;;
33162;SDS011;29282;45.656;11.302;2024-03-02T11:21:41;1.85;;;1.30;;
33162;SDS011;29282;45.656;11.302;2024-03-02T11:26:49;2.83;;;1.60;;
33162;SDS011;29282;45.656;11.302;2024-03-02T11:32:20;4.75;;;1.73;;
33162;SDS011;29282;45.656;11.302;2024-03-02T11:34:48;2.33;;;1.70;;
33162;SDS011;29282;45.656;11.302;2024-03-02T11:37:15;2.45;;;1.33;;
33162;SDS011;29282;45.656;11.302;2024-03-02T11:39:43;2.25;;;1.63;;
33162;SDS011;29282;45.656;11.302;2024-03-02T11:42:10;2.85;;;1.30;;
33162;SDS011;29282;45.656;11.302;2024-03-02T11:44:39;2.67;;;1.40;;
33162;SDS011;29282;45.656;11.302;2024-03-02T11:47:07;3.03;;;1.55;;
33162;SDS011;29282;45.656;11.302;2024-03-02T11:49:39;2.55;;;1.60;;
33162;SDS011;29282;45.656;11.302;2024-03-02T11:52:06;3.47;;;1.42;;
33162;SDS011;29282;45.656;11.302;2024-03-02T11:54:33;3.40;;;1.38;;
33162;SDS011;29282;45.656;11.302;2024-03-02T11:57:04;5.85;;;1.60;;
33162;SDS011;29282;45.656;11.302;2024-03-02T11:59:30;2.10;;;1.70;;
33162;SDS011;29282;45.656;11.302;2024-03-02T12:01:56;1.98;;;1.67;;
33162;SDS011;29282;45.656;11.302;2024-03-02T12:04:23;1.92;;;1.45;;
33162;SDS011;29282;45.656;11.302;2024-03-02T12:06:54;3.42;;;1.70;;
33162;SDS011;29282;45.656;11.302;2024-03-02T12:09:27;1.95;;;1.42;;
33162;SDS011;29282;45.656;11.302;2024-03-02T12:14:31;2.45;;;1.70;;
33162;SDS011;29282;45.656;11.302;2024-03-02T12:16:58;2.88;;;1.80;;
33162;SDS011;29282;45.656;11.302;2024-03-02T12:19:25;3.85;;;1.48;;
33162;SDS011;29282;45.656;11.302;2024-03-02T12:21:52;3.22;;;1.42;;
33162;SDS011;29282;45.656;11.302;2024-03-02T12:24:18;2.97;;;1.48;;
33162;SDS011;29282;45.656;11.302;2024-03-02T12:26:44;2.78;;;1.58;;
33162;SDS011;29282;45.656;11.302;2024-03-02T12:29:10;4.35;;;1.83;;
33162;SDS011;29282;45.656;11.302;2024-03-02T12:31:36;3.83;;;1.73;;
33162;SDS011;29282;45.656;11.302;2024-03-02T12:34:02;6.57;;;1.67;;
33162;SDS011;29282;45.656;11.302;2024-03-02T12:36:29;3.22;;;1.73;;
33162;SDS011;29282;45.656;11.302;2024-03-02T12:38:54;6.22;;;1.90;;
33162;SDS011;29282;45.656;11.302;2024-03-02T12:41:20;4.15;;;1.55;;
33162;SDS011;29282;45.656;11.302;2024-03-02T12:43:46;4.15;;;1.70;;
33162;SDS011;29282;45.656;11.302;2024-03-02T12:46:11;4.57;;;1.70;;
33162;SDS011;29282;45.656;11.302;2024-03-02T12:48:37;7.05;;;2.13;;
33162;SDS011;29282;45.656;11.302;2024-03-02T12:51:06;8.80;;;2.40;;
33162;SDS011;29282;45.656;11.302;2024-03-02T12:53:31;4.28;;;1.63;;
33162;SDS011;29282;45.656;11.302;2024-03-02T12:55:57;11.25;;;2.17;;
33162;SDS011;29282;45.656;11.302;2024-03-02T12:58:23;5.35;;;1.80;;
33162;SDS011;29282;45.656;11.302;2024-03-02T13:00:49;8.30;;;2.17;;
33162;SDS011;29282;45.656;11.302;2024-03-02T13:03:14;14.93;;;2.58;;
33162;SDS011;29282;45.656;11.302;2024-03-02T13:05:48;5.15;;;2.00;;
33162;SDS011;29282;45.656;11.302;2024-03-02T13:08:14;7.38;;;2.10;;
33162;SDS011;29282;45.656;11.302;2024-03-02T13:10:40;2.85;;;1.90;;
33162;SDS011;29282;45.656;11.302;2024-03-02T13:13:06;7.78;;;1.70;;
33162;SDS011;29282;45.656;11.302;2024-03-02T13:15:32;6.95;;;2.42;;
33162;SDS011;29282;45.656;11.302;2024-03-02T13:17:58;5.85;;;1.77;;
33162;SDS011;29282;45.656;11.302;2024-03-02T13:20:29;7.13;;;2.22;;
33162;SDS011;29282;45.656;11.302;2024-03-02T13:22:58;6.80;;;2.17;;
33162;SDS011;29282;45.656;11.302;2024-03-02T13:25:23;4.35;;;1.88;;
33162;SDS011;29282;45.656;11.302;2024-03-02T13:27:48;6.95;;;2.15;;
33162;SDS011;29282;45.656;11.302;2024-03-02T13:30:17;2.05;;;1.67;;
33162;SDS011;29282;45.656;11.302;2024-03-02T13:32:42;3.63;;;2.22;;
33162;SDS011;29282;45.656;11.302;2024-03-02T13:35:08;6.80;;;2.17;;
33162;SDS011;29282;45.656;11.302;2024-03-02T13:37:36;4.90;;;2.20;;
33162;SDS011;29282;45.656;11.302;2024-03-02T13:40:02;4.90;;;1.95;;
33162;SDS011;29282;45.656;11.302;2024-03-02T13:42:29;4.63;;;1.55;;
33162;SDS011;29282;45.656;11.302;2024-03-02T13:44:55;7.70;;;2.10;;
33162;SDS011;29282;45.656;11.302;2024-03-02T13:47:21;4.65;;;1.65;;
33162;SDS011;29282;45.656;11.302;2024-03-02T13:49:46;4.55;;;1.80;;
33162;SDS011;29282;45.656;11.302;2024-03-02T13:52:14;5.93;;;1.90;;
33162;SDS011;29282;45.656;11.302;2024-03-02T13:54:42;2.50;;;1.60;;
33162;SDS011;29282;45.656;11.302;2024-03-02T13:57:09;5.75;;;2.15;;
33162;SDS011;29282;45.656;11.302;2024-03-02T13:59:35;4.35;;;1.90;;
33162;SDS011;29282;45.656;11.302;2024-03-02T14:02:02;4.43;;;2.20;;
33162;SDS011;29282;45.656;11.302;2024-03-02T14:04:33;3.53;;;2.00;;
33162;SDS011;29282;45.656;11.302;2024-03-02T14:06:59;6.97;;;2.20;;
33162;SDS011;29282;45.656;11.302;2024-03-02T14:09:25;4.30;;;1.75;;
33162;SDS011;29282;45.656;11.302;2024-03-02T14:11:52;5.53;;;2.05;;
33162;SDS011;29282;45.656;11.302;2024-03-02T14:14:17;5.72;;;2.08;;
33162;SDS011;29282;45.656;11.302;2024-03-02T14:16:43;6.22;;;2.33;;
33162;SDS011;29282;45.656;11.302;2024-03-02T14:19:10;6.13;;;2.10;;
33162;SDS011;29282;45.656;11.302;2024-03-02T14:21:36;4.72;;;2.13;;
33162;SDS011;29282;45.656;11.302;2024-03-02T14:24:02;6.63;;;2.00;;
33162;SDS011;29282;45.656;11.302;2024-03-02T14:26:28;4.32;;;2.08;;
33162;SDS011;29282;45.656;11.302;2024-03-02T14:28:57;8.15;;;2.05;;
33162;SDS011;29282;45.656;11.302;2024-03-02T14:31:23;3.78;;;1.95;;
33162;SDS011;29282;45.656;11.302;2024-03-02T14:33:48;7.32;;;2.10;;
33162;SDS011;29282;45.656;11.302;2024-03-02T14:36:14;5.55;;;2.22;;
33162;SDS011;29282;45.656;11.302;2024-03-02T14:38:40;3.50;;;1.85;;
33162;SDS011;29282;45.656;11.302;2024-03-02T14:41:05;4.93;;;2.05;;
33162;SDS011;29282;45.656;11.302;2024-03-02T14:43:31;4.53;;;2.28;;
33162;SDS011;29282;45.656;11.302;2024-03-02T14:45:56;5.05;;;1.95;;
33162;SDS011;29282;45.656;11.302;2024-03-02T14:48:24;7.72;;;1.80;;